sensor_id;sensor_type;location;lat;lon;timestamp;P1;durP1;ratioP1;P2;durP2;ratioP2
80293;SDS011;69594;43.516;1.498;2023-05-20T00:01:51;7.07;;;3.77;;
80293;SDS011;69594;43.516;1.498;2023-05-20T00:04:17;7.83;;;4.17;;
80293;SDS011;69594;43.516;1.498;2023-05-20T00:06:43;8.80;;;3.80;;
80293;SDS011;69594;43.516;1.498;2023-05-20T00:09:08;6.73;;;3.80;;
80293;SDS011;69594;43.516;1.498;2023-05-20T00:11:34;8.30;;;3.40;;
80293;SDS011;69594;43.516;1.498;2023-05-20T00:14:00;9.93;;;3.40;;
80293;SDS011;69594;43.516;1.498;2023-05-20T00:16:25;7.65;;;3.50;;
80293;SDS011;69594;43.516;1.498;2023-05-20T00:18:51;9.93;;;4.17;;
80293;SDS011;69594;43.516;1.498;2023-05-20T00:21:17;8.13;;;4.00;;
80293;SDS011;69594;43.516;1.498;2023-05-20T00:23:42;9.05;;;3.80;;
80293;SDS011;69594;43.516;1.498;2023-05-20T00:26:07;7.77;;;4.13;;
80293;SDS011;69594;43.516;1.498;2023-05-20T00:28:33;11.47;;;4.30;;
80293;SDS011;69594;43.516;1.498;2023-05-20T00:30:58;9.07;;;3.70;;
80293;SDS011;69594;43.516;1.498;2023-05-20T00:33:24;8.82;;;3.50;;
80293;SDS011;69594;43.516;1.498;2023-05-20T00:35:49;10.33;;;4.00;;
80293;SDS011;69594;43.516;1.498;2023-05-20T00:38:15;7.07;;;4.20;;
80293;SDS011;69594;43.516;1.498;2023-05-20T00:40:40;7.97;;;3.93;;
80293;SDS011;69594;43.516;1.498;2023-05-20T00:43:06;7.83;;;3.90;;
80293;SDS011;69594;43.516;1.498;2023-05-20T00:45:31;8.65;;;4.20;;
80293;SDS011;69594;43.516;1.498;2023-05-20T00:47:56;8.40;;;3.93;;
80293;SDS011;69594;43.516;1.498;2023-05-20T00:50:25;11.77;;;3.75;;
80293;SDS011;69594;43.516;1.498;2023-05-20T00:52:51;11.67;;;4.10;;
80293;SDS011;69594;43.516;1.498;2023-05-20T00:55:19;9.43;;;4.32;;
80293;SDS011;69594;43.516;1.498;2023-05-20T00:57:45;9.85;;;4.43;;
80293;SDS011;69594;43.516;1.498;2023-05-20T01:00:10;7.63;;;3.80;;
80293;SDS011;69594;43.516;1.498;2023-05-20T01:02:37;8.80;;;3.88;;
80293;SDS011;69594;43.516;1.498;2023-05-20T01:05:03;12.60;;;4.37;;
80293;SDS011;69594;43.516;1.498;2023-05-20T01:07:28;8.82;;;4.32;;
80293;SDS011;69594;43.516;1.498;2023-05-20T01:09:54;9.40;;;4.30;;
80293;SDS011;69594;43.516;1.498;2023-05-20T01:12:27;7.43;;;3.83;;
80293;SDS011;69594;43.516;1.498;2023-05-20T01:15:00;9.73;;;4.43;;
80293;SDS011;69594;43.516;1.498;2023-05-20T01:17:31;9.77;;;3.97;;
80293;SDS011;69594;43.516;1.498;2023-05-20T01:19:57;8.23;;;3.70;;
80293;SDS011;69594;43.516;1.498;2023-05-20T01:22:25;10.25;;;4.13;;
80293;SDS011;69594;43.516;1.498;2023-05-20T01:24:51;8.00;;;4.22;;
80293;SDS011;69594;43.516;1.498;2023-05-20T01:27:18;9.18;;;4.15;;
80293;SDS011;69594;43.516;1.498;2023-05-20T01:29:44;8.57;;;3.83;;
80293;SDS011;69594;43.516;1.498;2023-05-20T01:32:21;11.40;;;4.10;;
80293;SDS011;69594;43.516;1.498;2023-05-20T01:34:51;9.48;;;3.90;;
80293;SDS011;69594;43.516;1.498;2023-05-20T01:37:18;9.60;;;4.10;;
80293;SDS011;69594;43.516;1.498;2023-05-20T01:39:46;9.20;;;3.63;;
80293;SDS011;69594;43.516;1.498;2023-05-20T01:42:13;11.83;;;4.30;;
80293;SDS011;69594;43.516;1.498;2023-05-20T01:44:40;9.10;;;4.00;;
80293;SDS011;69594;43.516;1.498;2023-05-20T01:47:05;10.43;;;4.60;;
80293;SDS011;69594;43.516;1.498;2023-05-20T01:49:31;10.37;;;3.90;;
80293;SDS011;69594;43.516;1.498;2023-05-20T01:51:56;11.37;;;4.27;;
80293;SDS011;69594;43.516;1.498;2023-05-20T01:54:22;7.65;;;3.92;;
80293;SDS011;69594;43.516;1.498;2023-05-20T01:56:48;7.47;;;4.53;;
80293;SDS011;69594;43.516;1.498;2023-05-20T01:59:14;9.52;;;4.82;;
80293;SDS011;69594;43.516;1.498;2023-05-20T02:01:39;8.47;;;4.00;;
80293;SDS011;69594;43.516;1.498;2023-05-20T02:04:05;9.03;;;4.70;;
80293;SDS011;69594;43.516;1.498;2023-05-20T02:06:30;6.50;;;3.70;;
80293;SDS011;69594;43.516;1.498;2023-05-20T02:08:56;11.47;;;4.27;;
80293;SDS011;69594;43.516;1.498;2023-05-20T02:11:21;12.47;;;4.47;;
80293;SDS011;69594;43.516;1.498;2023-05-20T02:13:48;6.82;;;3.72;;
80293;SDS011;69594;43.516;1.498;2023-05-20T02:16:13;7.70;;;4.00;;
80293;SDS011;69594;43.516;1.498;2023-05-20T02:18:39;9.82;;;4.38;;
80293;SDS011;69594;43.516;1.498;2023-05-20T02:21:06;10.68;;;4.00;;
80293;SDS011;69594;43.516;1.498;2023-05-20T02:23:32;10.53;;;4.20;;
80293;SDS011;69594;43.516;1.498;2023-05-20T02:25:57;12.20;;;4.37;;
80293;SDS011;69594;43.516;1.498;2023-05-20T02:28:23;9.05;;;4.38;;
80293;SDS011;69594;43.516;1.498;2023-05-20T02:30:48;12.53;;;4.40;;
80293;SDS011;69594;43.516;1.498;2023-05-20T02:33:17;7.80;;;4.20;;
80293;SDS011;69594;43.516;1.498;2023-05-20T02:35:43;9.33;;;4.30;;
80293;SDS011;69594;43.516;1.498;2023-05-20T02:38:09;9.27;;;4.40;;
80293;SDS011;69594;43.516;1.498;2023-05-20T02:40:37;10.23;;;3.90;;
80293;SDS011;69594;43.516;1.498;2023-05-20T02:43:03;8.85;;;3.78;;
80293;SDS011;69594;43.516;1.498;2023-05-20T02:45:28;9.83;;;4.53;;
80293;SDS011;69594;43.516;1.498;2023-05-20T02:47:54;8.15;;;4.60;;
80293;SDS011;69594;43.516;1.498;2023-05-20T02:50:19;6.77;;;4.03;;
80293;SDS011;69594;43.516;1.498;2023-05-20T02:52:45;8.43;;;4.63;;
80293;SDS011;69594;43.516;1.498;2023-05-20T02:55:11;11.63;;;4.47;;
80293;SDS011;69594;43.516;1.498;2023-05-20T02:57:36;10.67;;;4.93;;
80293;SDS011;69594;43.516;1.498;2023-05-20T03:00:08;12.50;;;6.03;;
80293;SDS011;69594;43.516;1.498;2023-05-20T03:02:40;10.52;;;4.70;;
80293;SDS011;69594;43.516;1.498;2023-05-20T03:05:05;10.37;;;4.33;;
80293;SDS011;69594;43.516;1.498;2023-05-20T03:07:34;11.30;;;4.60;;
80293;SDS011;69594;43.516;1.498;2023-05-20T03:10:00;7.47;;;4.00;;
80293;SDS011;69594;43.516;1.498;2023-05-20T03:12:27;8.98;;;4.72;;
80293;SDS011;69594;43.516;1.498;2023-05-20T03:14:52;13.68;;;4.97;;
80293;SDS011;69594;43.516;1.498;2023-05-20T03:17:19;11.20;;;4.77;;
80293;SDS011;69594;43.516;1.498;2023-05-20T03:19:45;10.68;;;4.88;;
80293;SDS011;69594;43.516;1.498;2023-05-20T03:22:11;8.30;;;4.80;;
80293;SDS011;69594;43.516;1.498;2023-05-20T03:24:36;9.57;;;4.53;;
80293;SDS011;69594;43.516;1.498;2023-05-20T03:27:02;10.23;;;4.67;;
80293;SDS011;69594;43.516;1.498;2023-05-20T03:29:27;8.48;;;4.80;;
80293;SDS011;69594;43.516;1.498;2023-05-20T03:31:53;10.07;;;4.60;;
80293;SDS011;69594;43.516;1.498;2023-05-20T03:34:18;11.70;;;4.60;;
80293;SDS011;69594;43.516;1.498;2023-05-20T03:36:44;9.50;;;4.73;;
80293;SDS011;69594;43.516;1.498;2023-05-20T03:39:10;9.77;;;4.55;;
80293;SDS011;69594;43.516;1.498;2023-05-20T03:41:35;11.47;;;5.37;;
80293;SDS011;69594;43.516;1.498;2023-05-20T03:44:01;13.65;;;5.90;;
80293;SDS011;69594;43.516;1.498;2023-05-20T03:46:27;9.00;;;4.90;;
80293;SDS011;69594;43.516;1.498;2023-05-20T03:48:52;13.17;;;4.93;;
80293;SDS011;69594;43.516;1.498;2023-05-20T03:51:18;11.23;;;4.85;;
80293;SDS011;69594;43.516;1.498;2023-05-20T03:53:43;9.70;;;4.90;;
80293;SDS011;69594;43.516;1.498;2023-05-20T03:56:08;13.67;;;5.23;;
80293;SDS011;69594;43.516;1.498;2023-05-20T03:58:34;12.77;;;5.13;;
80293;SDS011;69594;43.516;1.498;2023-05-20T04:01:02;11.82;;;5.10;;
80293;SDS011;69594;43.516;1.498;2023-05-20T04:03:27;12.30;;;5.30;;
80293;SDS011;69594;43.516;1.498;2023-05-20T04:05:54;12.18;;;5.22;;
80293;SDS011;69594;43.516;1.498;2023-05-20T04:08:19;14.43;;;5.10;;
80293;SDS011;69594;43.516;1.498;2023-05-20T04:10:46;11.25;;;5.28;;
80293;SDS011;69594;43.516;1.498;2023-05-20T04:13:11;10.53;;;5.87;;
80293;SDS011;69594;43.516;1.498;2023-05-20T04:15:37;9.88;;;5.25;;
80293;SDS011;69594;43.516;1.498;2023-05-20T04:18:03;8.93;;;5.43;;
80293;SDS011;69594;43.516;1.498;2023-05-20T04:20:30;13.15;;;5.65;;
80293;SDS011;69594;43.516;1.498;2023-05-20T04:22:56;11.65;;;5.65;;
80293;SDS011;69594;43.516;1.498;2023-05-20T04:25:21;9.43;;;5.97;;
80293;SDS011;69594;43.516;1.498;2023-05-20T04:27:48;13.88;;;5.90;;
80293;SDS011;69594;43.516;1.498;2023-05-20T04:30:13;15.30;;;5.97;;
80293;SDS011;69594;43.516;1.498;2023-05-20T04:32:41;10.48;;;5.70;;
80293;SDS011;69594;43.516;1.498;2023-05-20T04:35:07;12.73;;;5.47;;
80293;SDS011;69594;43.516;1.498;2023-05-20T04:37:35;11.77;;;5.25;;
80293;SDS011;69594;43.516;1.498;2023-05-20T04:40:01;10.43;;;5.73;;
80293;SDS011;69594;43.516;1.498;2023-05-20T04:42:27;11.63;;;5.43;;
80293;SDS011;69594;43.516;1.498;2023-05-20T04:44:54;13.13;;;6.05;;
80293;SDS011;69594;43.516;1.498;2023-05-20T04:47:19;17.00;;;6.27;;
80293;SDS011;69594;43.516;1.498;2023-05-20T04:49:44;13.67;;;6.03;;
80293;SDS011;69594;43.516;1.498;2023-05-20T04:52:10;10.67;;;6.33;;
80293;SDS011;69594;43.516;1.498;2023-05-20T04:54:35;13.23;;;6.10;;
80293;SDS011;69594;43.516;1.498;2023-05-20T04:57:00;13.30;;;6.00;;
80293;SDS011;69594;43.516;1.498;2023-05-20T04:59:29;13.70;;;6.10;;
80293;SDS011;69594;43.516;1.498;2023-05-20T05:01:54;13.43;;;6.28;;
80293;SDS011;69594;43.516;1.498;2023-05-20T05:04:20;14.93;;;6.13;;
80293;SDS011;69594;43.516;1.498;2023-05-20T05:06:46;15.63;;;6.40;;
80293;SDS011;69594;43.516;1.498;2023-05-20T05:09:12;12.15;;;5.70;;
80293;SDS011;69594;43.516;1.498;2023-05-20T05:11:38;12.37;;;5.57;;
80293;SDS011;69594;43.516;1.498;2023-05-20T05:14:03;11.53;;;4.93;;
80293;SDS011;69594;43.516;1.498;2023-05-20T05:16:28;13.27;;;5.67;;
80293;SDS011;69594;43.516;1.498;2023-05-20T05:18:54;11.33;;;5.33;;
80293;SDS011;69594;43.516;1.498;2023-05-20T05:21:19;9.67;;;5.37;;
80293;SDS011;69594;43.516;1.498;2023-05-20T05:23:44;13.67;;;6.10;;
80293;SDS011;69594;43.516;1.498;2023-05-20T05:26:10;14.73;;;5.15;;
80293;SDS011;69594;43.516;1.498;2023-05-20T05:28:35;15.43;;;6.20;;
80293;SDS011;69594;43.516;1.498;2023-05-20T05:31:01;9.27;;;4.93;;
80293;SDS011;69594;43.516;1.498;2023-05-20T05:33:26;14.90;;;6.17;;
80293;SDS011;69594;43.516;1.498;2023-05-20T05:35:52;12.27;;;5.55;;
80293;SDS011;69594;43.516;1.498;2023-05-20T05:38:18;11.23;;;4.97;;
80293;SDS011;69594;43.516;1.498;2023-05-20T05:40:43;9.00;;;5.33;;
80293;SDS011;69594;43.516;1.498;2023-05-20T05:43:08;13.20;;;5.80;;
80293;SDS011;69594;43.516;1.498;2023-05-20T05:45:34;10.93;;;5.47;;
80293;SDS011;69594;43.516;1.498;2023-05-20T05:47:59;13.03;;;5.60;;
80293;SDS011;69594;43.516;1.498;2023-05-20T05:50:25;10.57;;;4.72;;
80293;SDS011;69594;43.516;1.498;2023-05-20T05:52:50;10.43;;;5.90;;
80293;SDS011;69594;43.516;1.498;2023-05-20T05:55:15;9.83;;;4.97;;
80293;SDS011;69594;43.516;1.498;2023-05-20T05:57:42;15.25;;;6.20;;
80293;SDS011;69594;43.516;1.498;2023-05-20T06:00:07;11.00;;;5.00;;
80293;SDS011;69594;43.516;1.498;2023-05-20T06:02:33;11.90;;;5.22;;
80293;SDS011;69594;43.516;1.498;2023-05-20T06:05:03;11.27;;;5.30;;
80293;SDS011;69594;43.516;1.498;2023-05-20T06:07:29;16.00;;;5.83;;
80293;SDS011;69594;43.516;1.498;2023-05-20T06:09:54;13.63;;;5.75;;
80293;SDS011;69594;43.516;1.498;2023-05-20T06:12:20;13.40;;;5.00;;
80293;SDS011;69594;43.516;1.498;2023-05-20T06:14:45;14.00;;;6.27;;
80293;SDS011;69594;43.516;1.498;2023-05-20T06:17:11;16.08;;;6.20;;
80293;SDS011;69594;43.516;1.498;2023-05-20T06:19:37;13.97;;;6.10;;
80293;SDS011;69594;43.516;1.498;2023-05-20T06:22:02;14.13;;;5.77;;
80293;SDS011;69594;43.516;1.498;2023-05-20T06:24:28;8.82;;;5.07;;
80293;SDS011;69594;43.516;1.498;2023-05-20T06:26:53;10.80;;;5.60;;
80293;SDS011;69594;43.516;1.498;2023-05-20T06:29:19;10.47;;;5.73;;
80293;SDS011;69594;43.516;1.498;2023-05-20T06:31:44;11.32;;;5.50;;
80293;SDS011;69594;43.516;1.498;2023-05-20T06:34:10;11.43;;;5.50;;
80293;SDS011;69594;43.516;1.498;2023-05-20T06:36:35;11.60;;;5.20;;
80293;SDS011;69594;43.516;1.498;2023-05-20T06:39:01;9.30;;;5.47;;
80293;SDS011;69594;43.516;1.498;2023-05-20T06:41:26;13.52;;;5.75;;
80293;SDS011;69594;43.516;1.498;2023-05-20T06:43:51;9.53;;;5.43;;
80293;SDS011;69594;43.516;1.498;2023-05-20T06:46:17;11.83;;;5.57;;
80293;SDS011;69594;43.516;1.498;2023-05-20T06:48:42;10.13;;;5.23;;
80293;SDS011;69594;43.516;1.498;2023-05-20T06:51:08;10.70;;;5.13;;
80293;SDS011;69594;43.516;1.498;2023-05-20T06:53:34;13.70;;;5.83;;
80293;SDS011;69594;43.516;1.498;2023-05-20T06:56:00;12.65;;;6.15;;
80293;SDS011;69594;43.516;1.498;2023-05-20T06:58:25;11.17;;;5.13;;
80293;SDS011;69594;43.516;1.498;2023-05-20T07:00:51;10.10;;;4.75;;
80293;SDS011;69594;43.516;1.498;2023-05-20T07:03:16;10.80;;;4.63;;
80293;SDS011;69594;43.516;1.498;2023-05-20T07:05:42;10.93;;;5.33;;
80293;SDS011;69594;43.516;1.498;2023-05-20T07:08:07;13.93;;;5.10;;
80293;SDS011;69594;43.516;1.498;2023-05-20T07:10:33;15.43;;;5.20;;
80293;SDS011;69594;43.516;1.498;2023-05-20T07:12:58;10.00;;;4.93;;
80293;SDS011;69594;43.516;1.498;2023-05-20T07:15:24;9.63;;;4.23;;
80293;SDS011;69594;43.516;1.498;2023-05-20T07:17:49;9.55;;;4.57;;
80293;SDS011;69594;43.516;1.498;2023-05-20T07:20:15;9.13;;;5.00;;
80293;SDS011;69594;43.516;1.498;2023-05-20T07:22:41;8.70;;;4.47;;
80293;SDS011;69594;43.516;1.498;2023-05-20T07:25:06;12.80;;;4.63;;
80293;SDS011;69594;43.516;1.498;2023-05-20T07:27:32;12.05;;;5.03;;
80293;SDS011;69594;43.516;1.498;2023-05-20T07:29:57;10.93;;;4.27;;
80293;SDS011;69594;43.516;1.498;2023-05-20T07:32:23;12.47;;;5.13;;
80293;SDS011;69594;43.516;1.498;2023-05-20T07:34:48;10.43;;;4.73;;
80293;SDS011;69594;43.516;1.498;2023-05-20T07:37:13;9.20;;;4.70;;
80293;SDS011;69594;43.516;1.498;2023-05-20T07:39:40;8.57;;;4.40;;
80293;SDS011;69594;43.516;1.498;2023-05-20T07:42:05;9.82;;;4.40;;
80293;SDS011;69594;43.516;1.498;2023-05-20T07:44:31;8.63;;;4.73;;
80293;SDS011;69594;43.516;1.498;2023-05-20T07:46:57;9.57;;;4.80;;
80293;SDS011;69594;43.516;1.498;2023-05-20T07:49:23;7.88;;;4.05;;
80293;SDS011;69594;43.516;1.498;2023-05-20T07:51:48;8.73;;;4.60;;
80293;SDS011;69594;43.516;1.498;2023-05-20T07:54:14;9.77;;;4.80;;
80293;SDS011;69594;43.516;1.498;2023-05-20T07:56:40;8.30;;;4.27;;
80293;SDS011;69594;43.516;1.498;2023-05-20T07:59:05;10.07;;;4.90;;
80293;SDS011;69594;43.516;1.498;2023-05-20T08:01:31;10.53;;;4.43;;
80293;SDS011;69594;43.516;1.498;2023-05-20T08:03:56;9.20;;;4.00;;
80293;SDS011;69594;43.516;1.498;2023-05-20T08:06:21;9.27;;;4.22;;
80293;SDS011;69594;43.516;1.498;2023-05-20T08:08:50;10.50;;;4.40;;
80293;SDS011;69594;43.516;1.498;2023-05-20T08:11:18;9.75;;;4.22;;
80293;SDS011;69594;43.516;1.498;2023-05-20T08:13:45;9.35;;;4.38;;
80293;SDS011;69594;43.516;1.498;2023-05-20T08:16:10;9.53;;;4.17;;
80293;SDS011;69594;43.516;1.498;2023-05-20T08:18:36;8.37;;;4.10;;
80293;SDS011;69594;43.516;1.498;2023-05-20T08:21:02;10.15;;;4.38;;
80293;SDS011;69594;43.516;1.498;2023-05-20T08:23:27;10.13;;;3.97;;
80293;SDS011;69594;43.516;1.498;2023-05-20T08:25:53;8.63;;;4.30;;
80293;SDS011;69594;43.516;1.498;2023-05-20T08:28:21;8.82;;;4.28;;
80293;SDS011;69594;43.516;1.498;2023-05-20T08:30:46;10.90;;;4.73;;
80293;SDS011;69594;43.516;1.498;2023-05-20T08:33:12;8.57;;;4.05;;
80293;SDS011;69594;43.516;1.498;2023-05-20T08:35:38;8.40;;;3.73;;
80293;SDS011;69594;43.516;1.498;2023-05-20T08:38:04;10.50;;;4.10;;
80293;SDS011;69594;43.516;1.498;2023-05-20T08:40:30;8.95;;;3.90;;
80293;SDS011;69594;43.516;1.498;2023-05-20T08:42:58;5.97;;;3.80;;
80293;SDS011;69594;43.516;1.498;2023-05-20T08:45:26;6.67;;;3.87;;
80293;SDS011;69594;43.516;1.498;2023-05-20T08:47:53;9.32;;;4.25;;
80293;SDS011;69594;43.516;1.498;2023-05-20T08:50:19;8.73;;;4.22;;
80293;SDS011;69594;43.516;1.498;2023-05-20T08:52:46;10.13;;;3.80;;
80293;SDS011;69594;43.516;1.498;2023-05-20T08:55:59;7.65;;;3.83;;
80293;SDS011;69594;43.516;1.498;2023-05-20T08:58:07;6.63;;;3.45;;
80293;SDS011;69594;43.516;1.498;2023-05-20T09:00:33;8.07;;;3.90;;
80293;SDS011;69594;43.516;1.498;2023-05-20T09:02:59;11.77;;;3.72;;
80293;SDS011;69594;43.516;1.498;2023-05-20T09:05:25;7.47;;;3.93;;
80293;SDS011;69594;43.516;1.498;2023-05-20T09:07:51;9.23;;;4.18;;
80293;SDS011;69594;43.516;1.498;2023-05-20T09:10:18;8.30;;;3.65;;
80293;SDS011;69594;43.516;1.498;2023-05-20T09:12:44;8.93;;;3.67;;
80293;SDS011;69594;43.516;1.498;2023-05-20T09:15:09;6.25;;;3.70;;
80293;SDS011;69594;43.516;1.498;2023-05-20T09:17:35;7.47;;;3.53;;
80293;SDS011;69594;43.516;1.498;2023-05-20T09:20:04;7.90;;;4.03;;
80293;SDS011;69594;43.516;1.498;2023-05-20T09:22:34;6.78;;;3.45;;
80293;SDS011;69594;43.516;1.498;2023-05-20T09:25:00;10.30;;;4.07;;
80293;SDS011;69594;43.516;1.498;2023-05-20T09:27:26;8.30;;;3.30;;
80293;SDS011;69594;43.516;1.498;2023-05-20T09:29:51;8.97;;;3.87;;
80293;SDS011;69594;43.516;1.498;2023-05-20T09:32:17;11.20;;;4.13;;
80293;SDS011;69594;43.516;1.498;2023-05-20T09:34:47;7.80;;;3.80;;
80293;SDS011;69594;43.516;1.498;2023-05-20T09:37:13;6.13;;;3.47;;
80293;SDS011;69594;43.516;1.498;2023-05-20T09:39:56;7.30;;;3.45;;
80293;SDS011;69594;43.516;1.498;2023-05-20T09:42:37;8.30;;;3.40;;
80293;SDS011;69594;43.516;1.498;2023-05-20T09:45:06;9.75;;;3.78;;
80293;SDS011;69594;43.516;1.498;2023-05-20T09:47:33;8.95;;;3.72;;
80293;SDS011;69594;43.516;1.498;2023-05-20T09:50:01;7.32;;;3.53;;
80293;SDS011;69594;43.516;1.498;2023-05-20T09:52:27;6.80;;;3.25;;
80293;SDS011;69594;43.516;1.498;2023-05-20T09:54:54;10.40;;;3.30;;
80293;SDS011;69594;43.516;1.498;2023-05-20T09:57:21;6.07;;;2.92;;
80293;SDS011;69594;43.516;1.498;2023-05-20T09:59:47;6.13;;;3.45;;
80293;SDS011;69594;43.516;1.498;2023-05-20T10:02:15;7.72;;;3.70;;
80293;SDS011;69594;43.516;1.498;2023-05-20T10:04:42;6.18;;;3.28;;
80293;SDS011;69594;43.516;1.498;2023-05-20T10:07:27;7.70;;;3.50;;
80293;SDS011;69594;43.516;1.498;2023-05-20T10:10:20;9.10;;;3.45;;
80293;SDS011;69594;43.516;1.498;2023-05-20T10:20:52;6.80;;;3.05;;
80293;SDS011;69594;43.516;1.498;2023-05-20T10:23:21;6.97;;;2.90;;
80293;SDS011;69594;43.516;1.498;2023-05-20T10:25:51;7.40;;;2.83;;
80293;SDS011;69594;43.516;1.498;2023-05-20T10:28:26;8.07;;;3.65;;
80293;SDS011;69594;43.516;1.498;2023-05-20T10:30:54;5.87;;;3.47;;
80293;SDS011;69594;43.516;1.498;2023-05-20T10:33:20;7.85;;;3.55;;
80293;SDS011;69594;43.516;1.498;2023-05-20T10:35:51;5.67;;;2.80;;
80293;SDS011;69594;43.516;1.498;2023-05-20T10:38:18;8.32;;;3.00;;
80293;SDS011;69594;43.516;1.498;2023-05-20T10:40:45;6.65;;;2.80;;
80293;SDS011;69594;43.516;1.498;2023-05-20T10:43:12;8.13;;;2.70;;
80293;SDS011;69594;43.516;1.498;2023-05-20T10:45:48;6.88;;;2.75;;
80293;SDS011;69594;43.516;1.498;2023-05-20T10:48:33;6.85;;;3.05;;
80293;SDS011;69594;43.516;1.498;2023-05-20T10:50:59;7.22;;;2.78;;
80293;SDS011;69594;43.516;1.498;2023-05-20T10:53:29;6.38;;;3.00;;
80293;SDS011;69594;43.516;1.498;2023-05-20T10:56:03;9.43;;;3.00;;
80293;SDS011;69594;43.516;1.498;2023-05-20T10:58:35;5.55;;;2.70;;
80293;SDS011;69594;43.516;1.498;2023-05-20T11:01:02;5.22;;;2.65;;
80293;SDS011;69594;43.516;1.498;2023-05-20T11:03:27;6.50;;;2.53;;
80293;SDS011;69594;43.516;1.498;2023-05-20T11:05:53;6.75;;;2.97;;
80293;SDS011;69594;43.516;1.498;2023-05-20T11:08:19;7.50;;;3.23;;
80293;SDS011;69594;43.516;1.498;2023-05-20T11:10:45;5.68;;;2.95;;
80293;SDS011;69594;43.516;1.498;2023-05-20T11:13:11;9.30;;;3.30;;
80293;SDS011;69594;43.516;1.498;2023-05-20T11:15:38;6.00;;;2.90;;
80293;SDS011;69594;43.516;1.498;2023-05-20T11:18:04;6.82;;;2.95;;
80293;SDS011;69594;43.516;1.498;2023-05-20T11:20:29;7.07;;;2.80;;
80293;SDS011;69594;43.516;1.498;2023-05-20T11:22:59;6.68;;;2.78;;
80293;SDS011;69594;43.516;1.498;2023-05-20T11:25:26;6.10;;;2.28;;
80293;SDS011;69594;43.516;1.498;2023-05-20T11:27:52;5.63;;;2.57;;
80293;SDS011;69594;43.516;1.498;2023-05-20T11:30:18;6.40;;;2.88;;
80293;SDS011;69594;43.516;1.498;2023-05-20T11:32:57;4.88;;;2.22;;
80293;SDS011;69594;43.516;1.498;2023-05-20T11:35:27;5.20;;;2.63;;
80293;SDS011;69594;43.516;1.498;2023-05-20T11:40:22;6.25;;;2.35;;
80293;SDS011;69594;43.516;1.498;2023-05-20T11:42:52;5.68;;;2.35;;
80293;SDS011;69594;43.516;1.498;2023-05-20T11:45:21;6.53;;;2.30;;
80293;SDS011;69594;43.516;1.498;2023-05-20T11:48:00;4.75;;;2.40;;
80293;SDS011;69594;43.516;1.498;2023-05-20T11:50:39;4.57;;;2.10;;
80293;SDS011;69594;43.516;1.498;2023-05-20T11:53:06;5.95;;;2.67;;
80293;SDS011;69594;43.516;1.498;2023-05-20T11:55:33;4.40;;;2.20;;
80293;SDS011;69594;43.516;1.498;2023-05-20T11:58:08;7.20;;;2.30;;
80293;SDS011;69594;43.516;1.498;2023-05-20T12:00:33;3.90;;;2.00;;
80293;SDS011;69594;43.516;1.498;2023-05-20T12:02:59;4.97;;;2.17;;
80293;SDS011;69594;43.516;1.498;2023-05-20T12:05:24;5.05;;;2.38;;
80293;SDS011;69594;43.516;1.498;2023-05-20T12:07:50;4.63;;;2.00;;
80293;SDS011;69594;43.516;1.498;2023-05-20T12:10:15;5.30;;;2.40;;
80293;SDS011;69594;43.516;1.498;2023-05-20T12:12:41;8.60;;;2.80;;
80293;SDS011;69594;43.516;1.498;2023-05-20T12:15:08;4.87;;;2.07;;
80293;SDS011;69594;43.516;1.498;2023-05-20T12:17:43;6.80;;;2.50;;
80293;SDS011;69594;43.516;1.498;2023-05-20T12:20:12;4.47;;;2.10;;
80293;SDS011;69594;43.516;1.498;2023-05-20T12:22:39;8.07;;;2.70;;
80293;SDS011;69594;43.516;1.498;2023-05-20T12:25:05;5.33;;;2.30;;
80293;SDS011;69594;43.516;1.498;2023-05-20T12:27:30;4.57;;;1.98;;
80293;SDS011;69594;43.516;1.498;2023-05-20T12:29:57;3.33;;;1.88;;
80293;SDS011;69594;43.516;1.498;2023-05-20T12:32:23;2.70;;;1.83;;
80293;SDS011;69594;43.516;1.498;2023-05-20T12:34:48;4.87;;;2.10;;
80293;SDS011;69594;43.516;1.498;2023-05-20T12:37:14;5.63;;;2.30;;
80293;SDS011;69594;43.516;1.498;2023-05-20T12:39:39;2.45;;;1.60;;
80293;SDS011;69594;43.516;1.498;2023-05-20T12:42:05;3.77;;;2.10;;
80293;SDS011;69594;43.516;1.498;2023-05-20T12:44:30;6.30;;;1.93;;
80293;SDS011;69594;43.516;1.498;2023-05-20T12:46:56;4.40;;;1.73;;
80293;SDS011;69594;43.516;1.498;2023-05-20T12:49:21;3.20;;;1.70;;
80293;SDS011;69594;43.516;1.498;2023-05-20T12:51:46;3.87;;;1.90;;
80293;SDS011;69594;43.516;1.498;2023-05-20T12:54:12;4.23;;;1.70;;
80293;SDS011;69594;43.516;1.498;2023-05-20T12:56:37;4.43;;;2.17;;
80293;SDS011;69594;43.516;1.498;2023-05-20T12:59:04;4.38;;;1.85;;
80293;SDS011;69594;43.516;1.498;2023-05-20T13:01:30;4.25;;;2.20;;
80293;SDS011;69594;43.516;1.498;2023-05-20T13:03:55;5.20;;;2.03;;
80293;SDS011;69594;43.516;1.498;2023-05-20T13:06:21;4.78;;;1.92;;
80293;SDS011;69594;43.516;1.498;2023-05-20T13:08:46;4.03;;;1.80;;
80293;SDS011;69594;43.516;1.498;2023-05-20T13:11:12;4.27;;;2.53;;
80293;SDS011;69594;43.516;1.498;2023-05-20T13:13:37;5.10;;;1.87;;
80293;SDS011;69594;43.516;1.498;2023-05-20T13:16:03;5.00;;;1.87;;
80293;SDS011;69594;43.516;1.498;2023-05-20T13:18:28;5.10;;;1.90;;
80293;SDS011;69594;43.516;1.498;2023-05-20T13:20:54;2.85;;;1.55;;
80293;SDS011;69594;43.516;1.498;2023-05-20T13:23:19;4.23;;;1.60;;
80293;SDS011;69594;43.516;1.498;2023-05-20T13:25:45;3.70;;;1.60;;
80293;SDS011;69594;43.516;1.498;2023-05-20T13:28:10;2.93;;;1.60;;
80293;SDS011;69594;43.516;1.498;2023-05-20T13:30:40;4.63;;;1.83;;
80293;SDS011;69594;43.516;1.498;2023-05-20T13:33:05;3.63;;;1.90;;
80293;SDS011;69594;43.516;1.498;2023-05-20T13:35:31;7.13;;;2.10;;
80293;SDS011;69594;43.516;1.498;2023-05-20T13:37:56;7.67;;;1.97;;
80293;SDS011;69594;43.516;1.498;2023-05-20T13:40:22;3.83;;;2.23;;
80293;SDS011;69594;43.516;1.498;2023-05-20T13:42:47;3.77;;;1.87;;
80293;SDS011;69594;43.516;1.498;2023-05-20T13:45:12;3.93;;;2.23;;
80293;SDS011;69594;43.516;1.498;2023-05-20T13:47:37;3.10;;;1.67;;
80293;SDS011;69594;43.516;1.498;2023-05-20T13:50:03;4.13;;;2.22;;
80293;SDS011;69594;43.516;1.498;2023-05-20T13:52:29;6.30;;;1.80;;
80293;SDS011;69594;43.516;1.498;2023-05-20T13:54:54;5.13;;;1.95;;
80293;SDS011;69594;43.516;1.498;2023-05-20T13:57:20;3.37;;;1.77;;
80293;SDS011;69594;43.516;1.498;2023-05-20T13:59:45;5.03;;;2.07;;
80293;SDS011;69594;43.516;1.498;2023-05-20T14:02:11;4.60;;;2.00;;
80293;SDS011;69594;43.516;1.498;2023-05-20T14:04:36;6.53;;;2.13;;
80293;SDS011;69594;43.516;1.498;2023-05-20T14:07:04;6.23;;;2.30;;
80293;SDS011;69594;43.516;1.498;2023-05-20T14:09:29;7.10;;;2.58;;
80293;SDS011;69594;43.516;1.498;2023-05-20T14:11:55;4.97;;;2.53;;
80293;SDS011;69594;43.516;1.498;2023-05-20T14:14:20;6.20;;;2.90;;
80293;SDS011;69594;43.516;1.498;2023-05-20T14:16:46;7.47;;;2.90;;
80293;SDS011;69594;43.516;1.498;2023-05-20T14:19:12;14.88;;;7.18;;
80293;SDS011;69594;43.516;1.498;2023-05-20T14:21:37;9.13;;;3.93;;
80293;SDS011;69594;43.516;1.498;2023-05-20T14:24:03;6.40;;;2.83;;
80293;SDS011;69594;43.516;1.498;2023-05-20T14:26:28;10.90;;;5.82;;
80293;SDS011;69594;43.516;1.498;2023-05-20T14:28:54;6.57;;;2.97;;
80293;SDS011;69594;43.516;1.498;2023-05-20T14:31:19;5.60;;;2.63;;
80293;SDS011;69594;43.516;1.498;2023-05-20T14:33:44;3.90;;;1.70;;
80293;SDS011;69594;43.516;1.498;2023-05-20T14:36:10;4.30;;;1.90;;
80293;SDS011;69594;43.516;1.498;2023-05-20T14:38:35;5.97;;;1.90;;
80293;SDS011;69594;43.516;1.498;2023-05-20T14:41:01;7.43;;;1.97;;
80293;SDS011;69594;43.516;1.498;2023-05-20T14:43:26;3.93;;;1.90;;
80293;SDS011;69594;43.516;1.498;2023-05-20T14:45:52;2.70;;;1.80;;
80293;SDS011;69594;43.516;1.498;2023-05-20T14:48:17;3.53;;;1.90;;
80293;SDS011;69594;43.516;1.498;2023-05-20T14:50:43;4.33;;;1.30;;